Time,TemperatureF,DewpointF,PressureIn,WindDirection,WindDirectionDegrees,WindSpeedMPH,WindSpeedGustMPH,Humidity,HourlyPrecipIn,Conditions,Clouds,dailyrainin,SoftwareType,DateUTC
2013-01-10 00:02:00,27.5,18.7,30.41,NW,315,0.0,0.0,69,0.00,CLR,FEW,0.00,WeatherDisplay:10.37,2013-01-10 06:02:00,
2013-01-10 00:08:00,27.3,23.1,30.41,North,0,0.0,0.0,84,0.00,CLR,FEW,0.00,WeatherDisplay:10.37,2013-01-10 06:08:00,
2013-01-10 00:13:00,27.1,18.3,30.41,NW,315,0.0,0.0,69,0.00,CLR,FEW,0.00,WeatherDisplay:10.37,2013-01-10 06:13:00,
2013-01-10 00:19:00,27.3,23.1,30.41,NW,315,0.0,0.0,84,0.00,CLR,FEW,0.00,WeatherDisplay:10.37,2013-01-10 06:19:00,
2013-01-10 00:24:00,27.1,18.3,30.40,North,0,0.0,0.0,69,0.00,CLR,FEW,0.00,WeatherDisplay:10.37,2013-01-10 06:24:00,
2013-01-10 00:30:00,27.1,22.9,30.40,North,0,0.0,0.0,84,0.00,CLR,FEW,0.00,WeatherDisplay:10.37,2013-01-10 06:30:00,
2013-01-10 00:36:00,27.1,18.3,30.40,North,0,0.0,0.0,69,0.00,CLR,FEW,0.00,WeatherDisplay:10.37,2013-01-10 06:36:00,
2013-01-10 00:41:00,27.0,22.8,30.40,West,270,0.0,0.0,84,0.00,CLR,FEW,0.00,WeatherDisplay:10.37,2013-01-10 06:41:00,
2013-01-10 00:47:00,27.0,22.8,30.40,NE,45,0.0,0.0,84,0.00,CLR,FEW,0.00,WeatherDisplay:10.37,2013-01-10 06:47:00,
2013-01-10 00:52:00,26.8,22.6,30.40,SE,135,0.0,0.0,84,0.00,CLR,FEW,0.00,WeatherDisplay:10.37,2013-01-10 06:52:00,
2013-01-10 00:58:00,26.8,18.0,30.40,SE,135,0.0,0.0,69,0.00,CLR,FEW,0.00,WeatherDisplay:10.37,2013-01-10 06:58:00,
2013-01-10 01:04:00,26.4,22.2,30.40,SE,135,0.0,0.0,84,0.00,CLR,FEW,0.00,WeatherDisplay:10.37,2013-01-10 07:04:00,
2013-01-10 01:09:00,26.2,18.4,30.40,SE,135,0.0,0.0,72,0.00,CLR,FEW,0.00,WeatherDisplay:10.37,2013-01-10 07:09:00,
2013-01-10 01:15:00,26.2,18.4,30.40,SE,135,0.0,0.0,72,0.00,CLR,FEW,0.00,WeatherDisplay:10.37,2013-01-10 07:15:00,
2013-01-10 01:20:00,26.2,18.4,30.40,North,0,0.0,0.0,72,0.00,CLR,FEW,0.00,WeatherDisplay:10.37,2013-01-10 07:20:00,
2013-01-10 01:26:00,26.4,18.6,30.40,North,0,0.0,0.0,72,0.00,CLR,FEW,0.00,WeatherDisplay:10.37,2013-01-10 07:26:00,
2013-01-10 01:32:00,26.2,22.1,30.40,North,0,0.0,0.0,84,0.00,CLR,FEW,0.00,WeatherDisplay:10.37,2013-01-10 07:32:00,
2013-01-10 01:37:00,26.4,22.2,30.40,North,0,0.0,0.0,84,0.00,CLR,FEW,0.00,WeatherDisplay:10.37,2013-01-10 07:37:00,
2013-01-10 01:43:00,26.4,22.2,30.40,North,0,0.0,0.0,84,0.00,CLR,FEW,0.00,WeatherDisplay:10.37,2013-01-10 07:43:00,
2013-01-10 01:48:00,26.2,18.4,30.40,North,0,0.0,0.0,72,0.00,CLR,FEW,0.00,WeatherDisplay:10.37,2013-01-10 07:48:00,
2013-01-10 01:54:00,26.1,18.3,30.39,North,0,0.0,0.0,72,0.00,CLR,FEW,0.00,WeatherDisplay:10.37,2013-01-10 07:54:00,
2013-01-10 02:00:00,25.9,21.7,30.39,North,0,0.0,0.0,84,0.00,CLR,FEW,0.00,WeatherDisplay:10.37,2013-01-10 08:00:00,
2013-01-10 02:05:00,26.1,18.3,30.39,North,0,0.0,1.1,72,0.00,CLR,FEW,0.00,WeatherDisplay:10.37,2013-01-10 08:05:00,
2013-01-10 02:11:00,25.7,17.9,30.38,NW,315,0.0,0.0,72,0.00,CLR,FEW,0.00,WeatherDisplay:10.37,2013-01-10 08:11:00,
2013-01-10 02:16:00,25.7,17.9,30.38,NW,315,0.0,1.1,72,0.00,CLR,FEW,0.00,WeatherDisplay:10.37,2013-01-10 08:16:00,
2013-01-10 02:22:00,25.7,17.9,30.38,NW,315,0.0,1.1,72,0.00,CLR,FEW,0.00,WeatherDisplay:10.37,2013-01-10 08:22:00,
2013-01-10 02:28:00,25.5,21.4,30.38,SW,225,0.0,1.1,84,0.00,CLR,FEW,0.00,WeatherDisplay:10.37,2013-01-10 08:28:00,
2013-01-10 02:33:00,25.5,21.4,30.38,NW,315,0.0,0.0,84,0.00,CLR,FEW,0.00,WeatherDisplay:10.37,2013-01-10 08:33:00,
2013-01-10 02:39:00,25.7,21.5,30.38,NW,315,0.0,0.0,84,0.00,CLR,FEW,0.00,WeatherDisplay:10.37,2013-01-10 08:39:00,
2013-01-10 02:44:00,25.7,17.9,30.38,SW,225,0.0,0.0,72,0.00,CLR,FEW,0.00,WeatherDisplay:10.37,2013-01-10 08:44:00,
2013-01-10 02:50:00,25.7,17.9,30.38,South,180,0.0,1.1,72,0.00,CLR,FEW,0.00,WeatherDisplay:10.37,2013-01-10 08:50:00,
2013-01-10 02:56:00,25.7,17.9,30.38,South,180,0.0,0.0,72,0.00,CLR,FEW,0.00,WeatherDisplay:10.37,2013-01-10 08:56:00,
2013-01-10 03:01:00,25.7,16.9,30.38,South,180,0.0,0.0,69,0.00,CLR,FEW,0.00,WeatherDisplay:10.37,2013-01-10 09:01:00,
2013-01-10 03:07:00,25.7,21.5,30.37,East,90,0.0,1.1,84,0.00,CLR,FEW,0.00,WeatherDisplay:10.37,2013-01-10 09:07:00,
2013-01-10 03:12:00,25.9,21.7,30.37,South,180,0.0,0.0,84,0.00,CLR,FEW,0.00,WeatherDisplay:10.37,2013-01-10 09:12:00,
2013-01-10 03:18:00,26.2,17.4,30.37,SW,225,0.0,0.0,69,0.00,CLR,FEW,0.00,WeatherDisplay:10.37,2013-01-10 09:18:00,
2013-01-10 03:24:00,26.2,22.1,30.37,SE,135,0.0,0.0,84,0.00,CLR,FEW,0.00,WeatherDisplay:10.37,2013-01-10 09:24:00,
2013-01-10 03:29:00,26.2,17.4,30.37,South,180,0.0,0.0,69,0.00,CLR,FEW,0.00,WeatherDisplay:10.37,2013-01-10 09:29:00,
2013-01-10 03:35:00,26.2,22.1,30.37,South,180,0.0,0.0,84,0.00,CLR,FEW,0.00,WeatherDisplay:10.37,2013-01-10 09:35:00,
2013-01-10 03:40:00,26.2,22.1,30.37,South,180,0.0,0.0,84,0.00,CLR,FEW,0.00,WeatherDisplay:10.37,2013-01-10 09:40:00,
2013-01-10 03:46:00,26.4,17.6,30.37,North,0,0.0,0.0,69,0.00,CLR,FEW,0.00,WeatherDisplay:10.37,2013-01-10 09:46:00,
2013-01-10 03:52:00,26.2,17.4,30.37,North,0,0.0,0.0,69,0.00,CLR,FEW,0.00,WeatherDisplay:10.37,2013-01-10 09:52:00,
2013-01-10 03:57:00,26.4,17.6,30.37,SE,135,0.0,0.0,69,0.00,CLR,FEW,0.00,WeatherDisplay:10.37,2013-01-10 09:57:00,
2013-01-10 04:03:00,26.6,22.4,30.37,East,90,0.0,1.6,84,0.00,CLR,FEW,0.00,WeatherDisplay:10.37,2013-01-10 10:03:00,
2013-01-10 04:08:00,26.8,22.6,30.37,North,0,0.0,0.0,84,0.00,CLR,FEW,0.00,WeatherDisplay:10.37,2013-01-10 10:08:00,
2013-01-10 04:14:00,27.0,18.1,30.37,South,180,0.0,1.1,69,0.00,CLR,FEW,0.00,WeatherDisplay:10.37,2013-01-10 10:14:00,
2013-01-10 04:20:00,27.1,22.9,30.37,South,180,0.0,0.0,84,0.00,CLR,FEW,0.00,WeatherDisplay:10.37,2013-01-10 10:20:00,
2013-01-10 04:25:00,27.3,18.5,30.37,South,180,0.0,0.0,69,0.00,CLR,FEW,0.00,WeatherDisplay:10.37,2013-01-10 10:25:00,
2013-01-10 04:31:00,27.5,23.3,30.37,South,180,0.0,0.0,84,0.00,CLR,FEW,0.00,WeatherDisplay:10.37,2013-01-10 10:31:00,
2013-01-10 04:36:00,27.5,18.7,30.36,SE,135,0.0,0.0,69,0.00,CLR,FEW,0.00,WeatherDisplay:10.37,2013-01-10 10:36:00,
2013-01-10 04:42:00,27.3,18.5,30.35,North,0,0.0,0.0,69,0.00,CLR,FEW,0.00,WeatherDisplay:10.37,2013-01-10 10:42:00,
2013-01-10 04:48:00,27.5,18.7,30.35,North,0,0.0,0.0,69,0.00,CLR,FEW,0.00,WeatherDisplay:10.37,2013-01-10 10:48:00,
2013-01-10 04:53:00,27.3,18.5,30.35,NW,315,0.0,0.0,69,0.00,CLR,FEW,0.00,WeatherDisplay:10.37,2013-01-10 10:53:00,
2013-01-10 04:59:00,27.5,23.3,30.36,South,180,0.0,0.0,84,0.00,CLR,FEW,0.00,WeatherDisplay:10.37,2013-01-10 10:59:00,
2013-01-10 05:04:00,27.7,23.5,30.35,South,180,0.0,0.0,84,0.00,CLR,FEW,0.00,WeatherDisplay:10.37,2013-01-10 11:04:00,
2013-01-10 05:10:00,27.9,19.0,30.35,NE,45,0.0,0.0,69,0.00,CLR,FEW,0.00,WeatherDisplay:10.37,2013-01-10 11:10:00,
2013-01-10 05:16:00,27.7,23.5,30.34,NE,45,0.0,0.0,84,0.00,CLR,FEW,0.00,WeatherDisplay:10.37,2013-01-10 11:16:00,
2013-01-10 05:21:00,27.5,23.3,30.34,NE,45,0.0,0.0,84,0.00,CLR,FEW,0.00,WeatherDisplay:10.37,2013-01-10 11:21:00,
2013-01-10 05:27:00,27.7,18.8,30.34,NE,45,0.0,0.0,69,0.00,CLR,FEW,0.00,WeatherDisplay:10.37,2013-01-10 11:27:00,
2013-01-10 05:32:00,27.7,18.8,30.34,North,0,0.0,1.1,69,0.00,CLR,FEW,0.00,WeatherDisplay:10.37,2013-01-10 11:32:00,
2013-01-10 05:38:00,27.5,18.7,30.34,North,0,0.0,0.0,69,0.00,CLR,FEW,0.00,WeatherDisplay:10.37,2013-01-10 11:38:00,
2013-01-10 05:44:00,27.5,23.3,30.34,North,0,0.0,0.0,84,0.00,CLR,FEW,0.00,WeatherDisplay:10.37,2013-01-10 11:44:00,
2013-01-10 05:49:00,27.5,18.7,30.34,North,0,0.0,1.1,69,0.00,CLR,FEW,0.00,WeatherDisplay:10.37,2013-01-10 11:49:00,
2013-01-10 05:55:00,27.7,18.8,30.34,North,0,0.0,1.1,69,0.00,CLR,FEW,0.00,WeatherDisplay:10.37,2013-01-10 11:55:00,
2013-01-10 06:00:00,27.7,18.8,30.34,North,0,0.0,0.0,69,0.00,CLR,FEW,0.00,WeatherDisplay:10.37,2013-01-10 12:00:00,
2013-01-10 06:06:00,28.0,18.1,30.34,East,90,0.0,0.0,66,0.00,CLR,FEW,0.00,WeatherDisplay:10.37,2013-01-10 12:06:00,
2013-01-10 06:12:00,28.2,24.0,30.34,NE,45,0.0,0.0,84,0.00,CLR,FEW,0.00,WeatherDisplay:10.37,2013-01-10 12:12:00,
2013-01-10 06:17:00,28.2,18.3,30.34,NE,45,0.0,0.0,66,0.00,CLR,FEW,0.00,WeatherDisplay:10.37,2013-01-10 12:17:00,
2013-01-10 06:23:00,28.9,24.7,30.34,East,90,0.0,2.3,84,0.00,CLR,FEW,0.00,WeatherDisplay:10.37,2013-01-10 12:23:00,
2013-01-10 06:28:00,29.3,19.3,30.34,East,90,0.0,1.1,66,0.00,CLR,FEW,0.00,WeatherDisplay:10.37,2013-01-10 12:28:00,
2013-01-10 06:34:00,29.5,25.2,30.34,East,90,0.0,0.0,84,0.00,CLR,FEW,0.00,WeatherDisplay:10.37,2013-01-10 12:34:00,
2013-01-10 06:40:00,29.7,25.1,30.34,NE,45,0.0,0.0,83,0.00,CLR,FEW,0.00,WeatherDisplay:10.37,2013-01-10 12:40:00,
2013-01-10 06:45:00,29.7,19.7,30.34,NE,45,0.0,0.0,66,0.00,CLR,FEW,0.00,WeatherDisplay:10.37,2013-01-10 12:45:00,
2013-01-10 06:51:00,29.7,19.7,30.33,SE,135,0.0,0.0,66,0.00,CLR,FEW,0.00,WeatherDisplay:10.37,2013-01-10 12:51:00,
2013-01-10 06:56:00,29.8,24.1,30.33,East,90,0.0,0.0,79,0.00,CLR,FEW,0.00,WeatherDisplay:10.37,2013-01-10 12:56:00,
2013-01-10 07:02:00,30.0,20.0,30.33,East,90,0.0,0.0,66,0.00,CLR,FEW,0.00,WeatherDisplay:10.37,2013-01-10 13:02:00,
2013-01-10 07:08:00,30.0,24.0,30.33,East,90,0.0,0.0,78,0.00,CLR,FEW,0.00,WeatherDisplay:10.37,2013-01-10 13:08:00,
2013-01-10 07:13:00,30.2,20.2,30.33,East,90,0.0,0.0,66,0.00,CLR,FEW,0.00,WeatherDisplay:10.37,2013-01-10 13:13:00,
2013-01-10 07:19:00,30.4,23.7,30.33,NE,45,0.0,0.0,76,0.00,CLR,FEW,0.00,WeatherDisplay:10.37,2013-01-10 13:19:00,
2013-01-10 07:24:00,30.4,20.4,30.33,East,90,0.0,0.0,66,0.00,CLR,FEW,0.00,WeatherDisplay:10.37,2013-01-10 13:24:00,
2013-01-10 07:30:00,30.7,20.7,30.33,East,90,0.0,0.0,66,0.00,CLR,FEW,0.00,WeatherDisplay:10.37,2013-01-10 13:30:00,
2013-01-10 07:36:00,30.9,20.9,30.33,NE,45,0.7,3.5,66,0.00,CLR,FEW,0.00,WeatherDisplay:10.37,2013-01-10 13:36:00,
2013-01-10 07:41:00,30.9,23.0,30.33,East,90,0.0,1.1,72,0.00,CLR,FEW,0.00,WeatherDisplay:10.37,2013-01-10 13:41:00,
2013-01-10 07:47:00,30.9,23.0,30.32,East,90,0.0,0.0,72,0.00,CLR,FEW,0.00,WeatherDisplay:10.37,2013-01-10 13:47:00,
2013-01-10 07:52:00,31.1,23.1,30.32,East,90,0.0,0.0,72,0.00,CLR,FEW,0.00,WeatherDisplay:10.37,2013-01-10 13:52:00,
2013-01-10 07:58:00,31.1,21.1,30.32,SE,135,0.0,0.0,66,0.00,CLR,FEW,0.00,WeatherDisplay:10.37,2013-01-10 13:58:00,
2013-01-10 08:04:00,31.5,21.4,30.31,South,180,0.0,1.1,66,0.00,CLR,FEW,0.00,WeatherDisplay:10.37,2013-01-10 14:04:00,
2013-01-10 08:09:00,31.6,21.6,30.31,NE,45,0.0,0.0,66,0.00,CLR,FEW,0.00,WeatherDisplay:10.37,2013-01-10 14:09:00,
2013-01-10 08:15:00,32.0,22.6,30.31,NE,45,0.0,1.6,68,0.00,CLR,FEW,0.00,WeatherDisplay:10.37,2013-01-10 14:15:00,
2013-01-10 08:20:00,32.0,21.9,30.31,SE,135,0.0,3.5,66,0.00,CLR,FEW,0.00,WeatherDisplay:10.37,2013-01-10 14:20:00,
2013-01-10 08:26:00,32.0,21.9,30.30,East,90,1.6,4.6,66,0.00,CLR,FEW,0.00,WeatherDisplay:10.37,2013-01-10 14:26:00,
2013-01-10 08:32:00,32.2,22.1,30.31,East,90,0.0,5.8,66,0.00,CLR,FEW,0.00,WeatherDisplay:10.37,2013-01-10 14:32:00,
2013-01-10 08:37:00,32.4,22.3,30.30,SE,135,0.0,3.5,66,0.00,CLR,FEW,0.00,WeatherDisplay:10.37,2013-01-10 14:37:00,
2013-01-10 08:43:00,32.5,22.1,30.30,East,90,0.0,3.5,65,0.00,CLR,FEW,0.00,WeatherDisplay:10.37,2013-01-10 14:43:00,
2013-01-10 08:48:00,32.5,22.1,30.30,East,90,0.0,3.5,65,0.00,CLR,FEW,0.00,WeatherDisplay:10.37,2013-01-10 14:48:00,
2013-01-10 08:54:00,32.7,22.6,30.29,SE,135,0.0,3.5,66,0.00,CLR,FEW,0.00,WeatherDisplay:10.37,2013-01-10 14:54:00,
2013-01-10 09:00:00,32.7,22.6,30.29,East,90,0.7,3.5,66,0.00,CLR,FEW,0.00,WeatherDisplay:10.37,2013-01-10 15:00:00,
2013-01-10 09:05:00,33.1,22.6,30.29,SE,135,0.0,2.3,65,0.00,CLR,FEW,0.00,WeatherDisplay:10.37,2013-01-10 15:05:00,
2013-01-10 09:11:00,33.3,22.4,30.28,NW,315,0.7,3.1,64,0.00,CLR,FEW,0.00,WeatherDisplay:10.37,2013-01-10 15:11:00,
2013-01-10 09:16:00,33.3,22.4,30.27,South,180,0.0,2.3,64,0.00,CLR,FEW,0.00,WeatherDisplay:10.37,2013-01-10 15:16:00,
2013-01-10 09:22:00,33.4,23.3,30.27,East,90,0.7,4.6,66,0.00,CLR,FEW,0.00,WeatherDisplay:10.37,2013-01-10 15:22:00,
2013-01-10 09:28:00,33.4,22.2,30.27,SE,135,2.2,5.8,63,0.00,CLR,FEW,0.00,WeatherDisplay:10.37,2013-01-10 15:28:00,
2013-01-10 09:33:00,33.8,23.6,30.26,East,90,3.1,4.6,66,0.00,CLR,FEW,0.00,WeatherDisplay:10.37,2013-01-10 15:33:00,
2013-01-10 09:39:00,34.0,22.7,30.26,SE,135,1.6,5.8,63,0.00,CLR,FEW,0.00,WeatherDisplay:10.37,2013-01-10 15:39:00,
2013-01-10 09:44:00,34.5,22.8,30.25,ENE,68,3.1,8.1,62,0.00,CLR,FEW,0.00,WeatherDisplay:10.37,2013-01-10 15:44:00,
2013-01-10 09:50:00,34.3,24.2,30.25,East,90,1.6,6.9,66,0.00,CLR,FEW,0.00,WeatherDisplay:10.37,2013-01-10 15:50:00,
2013-01-10 09:56:00,34.9,22.8,30.25,East,90,3.1,5.8,61,0.00,CLR,FEW,0.00,WeatherDisplay:10.37,2013-01-10 15:56:00,
2013-01-10 10:01:00,35.6,23.9,30.25,East,90,0.7,3.8,62,0.00,CLR,FEW,0.00,WeatherDisplay:10.37,2013-01-10 16:01:00,
2013-01-10 10:07:00,36.1,23.2,30.25,East,90,2.2,5.8,59,0.00,CLR,FEW,0.00,WeatherDisplay:10.37,2013-01-10 16:07:00,
2013-01-10 10:12:00,36.3,22.5,30.25,East,90,0.7,3.5,57,0.00,CLR,FEW,0.00,WeatherDisplay:10.37,2013-01-10 16:12:00,
2013-01-10 10:18:00,36.3,22.5,30.24,SE,135,1.6,4.6,57,0.00,CLR,FEW,0.00,WeatherDisplay:10.37,2013-01-10 16:18:00,
2013-01-10 10:24:00,36.3,22.9,30.23,NE,45,0.7,4.6,58,0.00,CLR,FEW,0.00,WeatherDisplay:10.37,2013-01-10 16:24:00,
2013-01-10 10:29:00,36.5,22.7,30.22,East,90,3.1,6.0,57,0.00,CLR,FEW,0.00,WeatherDisplay:10.37,2013-01-10 16:29:00,
2013-01-10 10:35:00,37.2,23.4,30.22,NE,45,1.6,3.8,57,0.00,CLR,FEW,0.00,WeatherDisplay:10.37,2013-01-10 16:35:00,
2013-01-10 10:40:00,37.6,23.7,30.22,ENE,68,2.2,5.8,57,0.00,CLR,FEW,0.00,WeatherDisplay:10.37,2013-01-10 16:40:00,
2013-01-10 10:46:00,37.9,24.0,30.21,SE,135,0.7,4.6,57,0.00,CLR,FEW,0.00,WeatherDisplay:10.37,2013-01-10 16:46:00,
2013-01-10 10:52:00,38.5,23.3,30.21,NE,45,1.6,3.5,54,0.00,CLR,FEW,0.00,WeatherDisplay:10.37,2013-01-10 16:52:00,
2013-01-10 10:57:00,38.5,22.8,30.20,East,90,1.6,4.6,53,0.00,CLR,FEW,0.00,WeatherDisplay:10.37,2013-01-10 16:57:00,
2013-01-10 11:03:00,38.8,19.8,30.19,SE,135,2.2,5.8,46,0.00,FEW,,0.00,WeatherDisplay:10.37,2013-01-10 17:03:00,
2013-01-10 11:08:00,39.0,20.0,30.19,East,90,3.1,4.6,46,0.00,FEW,,0.00,WeatherDisplay:10.37,2013-01-10 17:08:00,
2013-01-10 11:14:00,39.4,20.3,30.18,East,90,1.6,5.8,46,0.00,FEW,,0.00,WeatherDisplay:10.37,2013-01-10 17:14:00,
2013-01-10 11:20:00,39.7,22.1,30.17,East,90,1.6,3.8,49,0.00,FEW,,0.00,WeatherDisplay:10.37,2013-01-10 17:20:00,
2013-01-10 11:25:00,39.9,20.8,30.17,SE,135,1.6,3.5,46,0.00,FEW,,0.00,WeatherDisplay:10.37,2013-01-10 17:25:00,
2013-01-10 11:31:00,39.7,20.6,30.17,SE,135,1.6,3.5,46,0.00,FEW,,0.00,WeatherDisplay:10.37,2013-01-10 17:31:00,
2013-01-10 11:36:00,39.7,20.6,30.16,East,90,2.2,4.6,46,0.00,FEW,,0.00,WeatherDisplay:10.37,2013-01-10 17:36:00,
2013-01-10 11:42:00,39.7,20.6,30.15,SE,135,5.4,8.1,46,0.00,FEW,,0.00,WeatherDisplay:10.37,2013-01-10 17:42:00,
2013-01-10 11:48:00,39.4,20.3,30.16,East,90,3.8,8.1,46,0.00,FEW,,0.00,WeatherDisplay:10.37,2013-01-10 17:48:00,
2013-01-10 11:53:00,39.6,22.0,30.14,East,90,2.2,5.4,49,0.00,FEW,,0.00,WeatherDisplay:10.37,2013-01-10 17:53:00,
2013-01-10 11:59:00,39.7,20.6,30.14,North,0,3.1,5.8,46,0.00,FEW,,0.00,WeatherDisplay:10.37,2013-01-10 17:59:00,
2013-01-10 12:04:00,39.6,20.5,30.13,East,90,3.8,6.9,46,0.00,CLR,FEW,0.00,WeatherDisplay:10.37,2013-01-10 18:04:00,
2013-01-10 12:10:00,39.6,20.5,30.12,SE,135,3.8,6.9,46,0.00,CLR,FEW,0.00,WeatherDisplay:10.37,2013-01-10 18:10:00,
2013-01-10 12:16:00,39.6,21.5,30.11,East,90,3.1,6.9,48,0.00,CLR,FEW,0.00,WeatherDisplay:10.37,2013-01-10 18:16:00,
2013-01-10 12:21:00,39.4,20.3,30.11,East,90,3.1,6.0,46,0.00,CLR,FEW,0.00,WeatherDisplay:10.37,2013-01-10 18:21:00,
2013-01-10 12:27:00,39.6,20.5,30.10,NE,45,3.1,5.8,46,0.00,CLR,FEW,0.00,WeatherDisplay:10.37,2013-01-10 18:27:00,
2013-01-10 12:32:00,39.6,20.5,30.09,East,90,3.1,8.1,46,0.00,CLR,FEW,0.00,WeatherDisplay:10.37,2013-01-10 18:32:00,
2013-01-10 12:38:00,39.4,20.3,30.08,SE,135,4.5,8.1,46,0.00,CLR,FEW,0.00,WeatherDisplay:10.37,2013-01-10 18:38:00,
2013-01-10 12:44:00,39.4,20.3,30.08,East,90,4.5,8.1,46,0.00,CLR,FEW,0.00,WeatherDisplay:10.37,2013-01-10 18:44:00,
2013-01-10 12:49:00,39.4,20.3,30.07,NE,45,2.2,6.9,46,0.00,CLR,FEW,0.00,WeatherDisplay:10.37,2013-01-10 18:49:00,
2013-01-10 12:55:00,39.6,22.9,30.07,NE,45,3.1,9.2,51,0.00,CLR,FEW,0.00,WeatherDisplay:10.37,2013-01-10 18:55:00,
2013-01-10 13:00:00,39.7,20.6,30.06,East,90,3.1,5.8,46,0.00,CLR,FEW,0.00,WeatherDisplay:10.37,2013-01-10 19:00:00,
2013-01-10 13:06:00,39.9,23.2,30.06,SE,135,1.6,5.4,51,0.00,BKN,FEW,0.00,WeatherDisplay:10.37,2013-01-10 19:06:00,
2013-01-10 13:12:00,39.7,19.6,30.06,SE,135,3.8,8.1,44,0.00,BKN,FEW,0.00,WeatherDisplay:10.37,2013-01-10 19:12:00,
2013-01-10 13:17:00,39.7,19.6,30.05,SE,135,3.1,4.6,44,0.00,BKN,FEW,0.00,WeatherDisplay:10.37,2013-01-10 19:17:00,
2013-01-10 13:23:00,39.9,23.2,30.05,SE,135,3.1,5.8,51,0.00,BKN,FEW,0.00,WeatherDisplay:10.37,2013-01-10 19:23:00,
2013-01-10 13:28:00,40.3,23.6,30.04,South,180,1.6,4.6,51,0.00,BKN,FEW,0.00,WeatherDisplay:10.37,2013-01-10 19:28:00,
2013-01-10 13:34:00,40.3,20.1,30.05,East,90,2.2,4.6,44,0.00,BKN,FEW,0.00,WeatherDisplay:10.37,2013-01-10 19:34:00,
2013-01-10 13:40:00,40.5,20.2,30.05,SE,135,3.1,5.8,44,0.00,BKN,FEW,0.00,WeatherDisplay:10.37,2013-01-10 19:40:00,
2013-01-10 13:45:00,40.5,20.2,30.04,East,90,3.8,8.3,44,0.00,BKN,FEW,0.00,WeatherDisplay:10.37,2013-01-10 19:45:00,
2013-01-10 13:51:00,40.5,23.3,30.04,East,90,3.1,8.1,50,0.00,BKN,FEW,0.00,WeatherDisplay:10.37,2013-01-10 19:51:00,
2013-01-10 13:56:00,40.6,20.4,30.04,SE,135,3.1,5.8,44,0.00,BKN,FEW,0.00,WeatherDisplay:10.37,2013-01-10 19:56:00,
2013-01-10 14:02:00,40.5,21.3,30.04,North,0,3.1,5.8,46,0.00,OVC,FEW,0.00,WeatherDisplay:10.37,2013-01-10 20:02:00,
2013-01-10 14:08:00,40.6,24.4,30.04,East,90,3.8,8.1,52,0.00,OVC,FEW,0.00,WeatherDisplay:10.37,2013-01-10 20:08:00,
2013-01-10 14:13:00,40.6,21.4,30.04,East,90,3.1,5.8,46,0.00,OVC,FEW,0.00,WeatherDisplay:10.37,2013-01-10 20:13:00,
2013-01-10 14:19:00,40.6,24.4,30.03,NE,45,3.8,5.8,52,0.00,OVC,FEW,0.00,WeatherDisplay:10.37,2013-01-10 20:19:00,
2013-01-10 14:24:00,40.8,21.6,30.03,East,90,2.2,4.6,46,0.00,OVC,FEW,0.00,WeatherDisplay:10.37,2013-01-10 20:24:00,
2013-01-10 14:30:00,40.8,21.6,30.02,SE,135,3.8,6.9,46,0.00,OVC,FEW,0.00,WeatherDisplay:10.37,2013-01-10 20:30:00,
2013-01-10 14:36:00,41.0,24.7,30.02,SE,135,4.5,8.1,52,0.00,OVC,FEW,0.00,WeatherDisplay:10.37,2013-01-10 20:36:00,
2013-01-10 14:41:00,41.0,21.8,30.01,East,90,3.1,8.1,46,0.00,OVC,FEW,0.00,WeatherDisplay:10.37,2013-01-10 20:41:00,
2013-01-10 14:47:00,40.8,25.4,30.01,SE,135,3.8,6.9,54,0.00,OVC,FEW,0.00,WeatherDisplay:10.37,2013-01-10 20:47:00,
2013-01-10 14:52:00,40.8,21.6,30.01,East,90,2.2,8.1,46,0.00,OVC,FEW,0.00,WeatherDisplay:10.37,2013-01-10 20:52:00,
2013-01-10 14:58:00,40.6,21.4,30.01,East,90,3.1,5.8,46,0.00,OVC,FEW,0.00,WeatherDisplay:10.37,2013-01-10 20:58:00,
2013-01-10 15:04:00,40.8,25.4,30.01,NE,45,3.8,8.1,54,0.00,OVC,FEW,0.00,WeatherDisplay:10.37,2013-01-10 21:04:00,
2013-01-10 15:09:00,41.0,24.2,30.00,East,90,3.1,4.6,51,0.00,OVC,FEW,0.00,WeatherDisplay:10.37,2013-01-10 21:09:00,
2013-01-10 15:15:00,41.0,24.2,30.00,NE,45,4.5,8.1,51,0.00,OVC,FEW,0.00,WeatherDisplay:10.37,2013-01-10 21:15:00,
2013-01-10 15:20:00,41.2,24.4,30.00,South,180,2.2,4.6,51,0.00,OVC,FEW,0.00,WeatherDisplay:10.37,2013-01-10 21:20:00,
2013-01-10 15:26:00,41.0,24.2,30.00,East,90,2.2,10.4,51,0.00,OVC,FEW,0.00,WeatherDisplay:10.37,2013-01-10 21:26:00,
2013-01-10 15:32:00,40.5,28.5,30.00,East,90,3.8,12.7,62,0.00,OVC,FEW,0.00,WeatherDisplay:10.37,2013-01-10 21:32:00,
2013-01-10 15:37:00,39.6,22.9,30.00,SE,135,3.1,6.9,51,0.00,OVC,FEW,0.00,WeatherDisplay:10.37,2013-01-10 21:37:00,
2013-01-10 15:43:00,38.8,22.2,30.00,East,90,5.4,8.1,51,0.00,OVC,FEW,0.00,WeatherDisplay:10.37,2013-01-10 21:43:00,
2013-01-10 15:48:00,37.9,21.4,30.00,East,90,3.8,9.2,51,0.01,RA,FEW,0.01,WeatherDisplay:10.37,2013-01-10 21:48:00,
2013-01-10 15:54:00,37.4,20.9,30.00,NE,45,2.2,5.8,51,0.01,OVC,FEW,0.01,WeatherDisplay:10.37,2013-01-10 21:54:00,
2013-01-10 16:00:00,37.0,32.7,29.99,North,0,0.7,8.1,84,0.01,OVC,FEW,0.01,WeatherDisplay:10.37,2013-01-10 22:00:00,
2013-01-10 16:05:00,36.9,32.5,29.98,SE,135,3.8,6.0,84,0.02,-RA,FEW,0.02,WeatherDisplay:10.37,2013-01-10 22:05:00,
2013-01-10 16:11:00,36.7,32.3,29.98,SE,135,2.2,6.9,84,0.02,-RA,FEW,0.02,WeatherDisplay:10.37,2013-01-10 22:11:00,
2013-01-10 16:16:00,36.7,32.3,29.97,East,90,3.1,5.8,84,0.02,-RA,FEW,0.02,WeatherDisplay:10.37,2013-01-10 22:16:00,
2013-01-10 16:22:00,36.7,27.8,29.97,SE,135,3.8,6.9,70,0.02,-RA,FEW,0.02,WeatherDisplay:10.37,2013-01-10 22:22:00,
2013-01-10 16:28:00,36.7,32.3,29.97,SE,135,3.1,6.0,84,0.02,-RA,FEW,0.02,WeatherDisplay:10.37,2013-01-10 22:28:00,
2013-01-10 16:33:00,36.5,27.6,29.97,East,90,1.6,8.1,70,0.02,-RA,FEW,0.02,WeatherDisplay:10.37,2013-01-10 22:33:00,
2013-01-10 16:39:00,36.5,27.6,29.98,East,90,2.2,5.8,70,0.02,-RA,FEW,0.02,WeatherDisplay:10.37,2013-01-10 22:39:00,
2013-01-10 16:44:00,36.5,32.1,29.97,East,90,3.8,6.9,84,0.01,-RA,FEW,0.02,WeatherDisplay:10.37,2013-01-10 22:44:00,
2013-01-10 16:50:00,36.7,27.8,29.97,East,90,3.1,5.8,70,0.01,-RA,FEW,0.02,WeatherDisplay:10.37,2013-01-10 22:50:00,
2013-01-10 16:56:00,36.7,32.3,29.96,ENE,68,2.2,5.8,84,0.01,-RA,FEW,0.02,WeatherDisplay:10.37,2013-01-10 22:56:00,
2013-01-10 17:02:00,36.7,30.1,29.96,East,90,3.8,6.0,77,0.01,OVC,FEW,0.02,WeatherDisplay:10.37,2013-01-10 23:02:00,
2013-01-10 17:08:00,36.7,32.3,29.95,East,90,3.8,8.3,84,0.00,OVC,FEW,0.02,WeatherDisplay:10.37,2013-01-10 23:08:00,
2013-01-10 17:13:00,36.7,30.1,29.95,East,90,3.8,8.1,77,0.00,OVC,FEW,0.02,WeatherDisplay:10.37,2013-01-10 23:13:00,
2013-01-10 17:19:00,36.7,30.1,29.95,SE,135,2.2,6.9,77,0.00,OVC,FEW,0.02,WeatherDisplay:10.37,2013-01-10 23:19:00,
2013-01-10 17:24:00,36.5,30.0,29.95,SE,135,1.6,3.8,77,0.00,OVC,FEW,0.02,WeatherDisplay:10.37,2013-01-10 23:24:00,
2013-01-10 17:30:00,36.7,30.1,29.94,NW,315,2.2,8.1,77,0.00,OVC,FEW,0.02,WeatherDisplay:10.37,2013-01-10 23:30:00,
2013-01-10 17:36:00,36.9,32.5,29.94,SE,135,2.2,6.9,84,0.00,OVC,FEW,0.02,WeatherDisplay:10.37,2013-01-10 23:36:00,
2013-01-10 17:41:00,36.7,30.1,29.93,NE,45,0.0,2.3,77,0.01,RA,FEW,0.04,WeatherDisplay:10.37,2013-01-10 23:41:00,
2013-01-10 17:47:00,36.7,32.3,29.93,East,90,5.4,9.2,84,0.01,RA,FEW,0.04,WeatherDisplay:10.37,2013-01-10 23:47:00,
2013-01-10 17:52:00,36.7,30.1,29.93,South,180,3.8,6.9,77,0.01,OVC,FEW,0.04,WeatherDisplay:10.37,2013-01-10 23:52:00,
2013-01-10 17:58:00,36.7,30.1,29.93,SE,135,1.6,4.6,77,0.01,OVC,FEW,0.04,WeatherDisplay:10.37,2013-01-10 23:58:00,
2013-01-10 18:04:00,36.7,32.3,29.93,West,270,1.6,5.8,84,0.01,-RA,FEW,0.04,WeatherDisplay:10.37,2013-01-11 00:04:00,
2013-01-10 18:09:00,36.7,30.1,29.93,South,180,2.2,5.8,77,0.01,-RA,FEW,0.04,WeatherDisplay:10.37,2013-01-11 00:09:00,
2013-01-10 18:15:00,36.7,30.1,29.92,SE,135,0.7,5.8,77,0.02,-RA,FEW,0.05,WeatherDisplay:10.37,2013-01-11 00:15:00,
2013-01-10 18:20:00,36.7,32.3,29.91,East,90,0.0,3.5,84,0.02,-RA,FEW,0.05,WeatherDisplay:10.37,2013-01-11 00:20:00,
2013-01-10 18:26:00,36.7,30.1,29.91,NE,45,2.2,5.4,77,0.02,-RA,FEW,0.05,WeatherDisplay:10.37,2013-01-11 00:26:00,
2013-01-10 18:32:00,36.7,32.3,29.91,East,90,3.8,5.8,84,0.02,-RA,FEW,0.05,WeatherDisplay:10.37,2013-01-11 00:32:00,
2013-01-10 18:38:00,36.7,30.1,29.92,NE,45,0.7,5.8,77,0.01,-RA,FEW,0.05,WeatherDisplay:10.37,2013-01-11 00:38:00,
2013-01-10 18:44:00,36.7,32.3,29.92,East,90,3.8,6.9,84,0.01,-RA,FEW,0.05,WeatherDisplay:10.37,2013-01-11 00:44:00,
2013-01-10 18:49:00,36.9,30.3,29.91,SE,135,2.2,3.5,77,0.02,-RA,FEW,0.06,WeatherDisplay:10.37,2013-01-11 00:49:00,
2013-01-10 18:55:00,36.7,30.1,29.91,East,90,1.6,5.8,77,0.04,-RA,FEW,0.07,WeatherDisplay:10.37,2013-01-11 00:55:00,
2013-01-10 19:00:00,36.7,32.3,29.91,East,90,1.6,4.6,84,0.05,-RA,FEW,0.08,WeatherDisplay:10.37,2013-01-11 01:00:00,
2013-01-10 19:06:00,36.7,32.6,29.91,East,90,1.6,3.5,85,0.05,RA,FEW,0.08,WeatherDisplay:10.37,2013-01-11 01:06:00,
2013-01-10 19:12:00,36.7,32.6,29.90,East,90,2.2,3.5,85,0.05,OVC,FEW,0.08,WeatherDisplay:10.37,2013-01-11 01:12:00,
2013-01-10 19:17:00,36.7,32.3,29.89,East,90,2.2,4.6,84,0.05,RA,FEW,0.09,WeatherDisplay:10.37,2013-01-11 01:17:00,
2013-01-10 19:23:00,36.9,32.5,29.89,SE,135,1.6,6.9,84,0.06,RA,FEW,0.11,WeatherDisplay:10.37,2013-01-11 01:23:00,
2013-01-10 19:28:00,36.9,32.5,29.88,East,90,1.6,3.5,84,0.06,RA,FEW,0.11,WeatherDisplay:10.37,2013-01-11 01:28:00,
2013-01-10 19:34:00,36.9,32.8,29.88,NE,45,1.6,3.5,85,0.07,RA,FEW,0.12,WeatherDisplay:10.37,2013-01-11 01:34:00,
2013-01-10 19:40:00,36.9,32.5,29.87,East,90,1.6,3.8,84,0.07,RA,FEW,0.13,WeatherDisplay:10.37,2013-01-11 01:40:00,
2013-01-10 19:45:00,36.9,32.8,29.86,East,90,0.0,6.9,85,0.07,RA,FEW,0.13,WeatherDisplay:10.37,2013-01-11 01:45:00,
2013-01-10 19:51:00,36.9,32.8,29.85,East,90,2.2,5.8,85,0.08,RA,FEW,0.14,WeatherDisplay:10.37,2013-01-11 01:51:00,
2013-01-10 19:56:00,36.9,32.5,29.85,East,90,2.2,4.6,84,0.08,RA,FEW,0.15,WeatherDisplay:10.37,2013-01-11 01:56:00,
2013-01-10 20:02:00,37.0,31.4,29.85,East,90,3.8,6.9,80,0.07,RA,FEW,0.15,WeatherDisplay:10.37,2013-01-11 02:02:00,
2013-01-10 20:08:00,37.0,32.7,29.85,South,180,0.7,6.9,84,0.07,OVC,FEW,0.17,WeatherDisplay:10.37,2013-01-11 02:08:00,
2013-01-10 20:13:00,37.0,31.4,29.85,NE,45,1.6,3.5,80,0.09,RA,FEW,0.18,WeatherDisplay:10.37,2013-01-11 02:13:00,
2013-01-10 20:19:00,37.0,31.4,29.86,SE,135,1.6,4.6,80,0.11,RA,FEW,0.20,WeatherDisplay:10.37,2013-01-11 02:19:00,
2013-01-10 20:24:00,37.2,31.6,29.86,South,180,0.7,3.5,80,0.11,RA,FEW,0.21,WeatherDisplay:10.37,2013-01-11 02:24:00,
2013-01-10 20:30:00,37.2,31.6,29.87,SE,135,0.7,4.6,80,0.13,RA,FEW,0.24,WeatherDisplay:10.37,2013-01-11 02:30:00,
2013-01-10 20:36:00,37.0,32.7,29.86,East,90,0.0,2.3,84,0.13,RA,FEW,0.25,WeatherDisplay:10.37,2013-01-11 02:36:00,
2013-01-10 20:41:00,37.2,31.6,29.85,East,90,1.6,3.8,80,0.14,RA,FEW,0.27,WeatherDisplay:10.37,2013-01-11 02:41:00,
2013-01-10 20:47:00,37.2,32.8,29.85,SE,135,1.6,5.4,84,0.15,RA,FEW,0.28,WeatherDisplay:10.37,2013-01-11 02:47:00,
2013-01-10 20:52:00,37.4,31.8,29.85,SE,135,0.7,4.6,80,0.15,RA,FEW,0.30,WeatherDisplay:10.37,2013-01-11 02:52:00,
2013-01-10 20:58:00,37.4,31.8,29.85,East,90,2.2,3.8,80,0.15,RA,FEW,0.31,WeatherDisplay:10.37,2013-01-11 02:58:00,
2013-01-10 21:04:00,37.6,33.2,29.85,NE,45,0.7,2.3,84,0.17,RA,FEW,0.32,WeatherDisplay:10.37,2013-01-11 03:04:00,
2013-01-10 21:09:00,37.6,32.0,29.84,East,90,1.6,3.8,80,0.17,RA,FEW,0.33,WeatherDisplay:10.37,2013-01-11 03:09:00,
2013-01-10 21:15:00,37.6,32.0,29.84,East,90,1.6,3.5,80,0.15,RA,FEW,0.33,WeatherDisplay:10.37,2013-01-11 03:15:00,
2013-01-10 21:20:00,37.6,32.0,29.84,East,90,0.0,3.5,80,0.14,RA,FEW,0.34,WeatherDisplay:10.37,2013-01-11 03:20:00,
2013-01-10 21:26:00,37.8,32.1,29.84,East,90,2.2,3.5,80,0.12,RA,FEW,0.34,WeatherDisplay:10.37,2013-01-11 03:26:00,
2013-01-10 21:32:00,37.9,33.5,29.83,East,90,0.7,3.5,84,0.11,OVC,FEW,0.34,WeatherDisplay:10.37,2013-01-11 03:32:00,
2013-01-10 21:37:00,37.9,33.5,29.83,East,90,1.6,3.1,84,0.08,OVC,FEW,0.34,WeatherDisplay:10.37,2013-01-11 03:37:00,
2013-01-10 21:43:00,38.1,33.7,29.83,SE,135,1.6,3.5,84,0.07,OVC,FEW,0.34,WeatherDisplay:10.37,2013-01-11 03:43:00,
2013-01-10 21:48:00,38.1,33.7,29.82,East,90,0.7,2.3,84,0.06,OVC,FEW,0.34,WeatherDisplay:10.37,2013-01-11 03:48:00,
2013-01-10 21:54:00,38.3,32.7,29.81,East,90,0.7,3.5,80,0.05,OVC,FEW,0.34,WeatherDisplay:10.37,2013-01-11 03:54:00,
2013-01-10 22:00:00,38.3,32.7,29.81,SE,135,0.7,2.3,80,0.05,RA,FEW,0.35,WeatherDisplay:10.37,2013-01-11 04:00:00,
2013-01-10 22:05:00,38.1,34.0,29.81,East,90,1.6,3.5,85,0.04,OVC,FEW,0.35,WeatherDisplay:10.37,2013-01-11 04:05:00,
2013-01-10 22:11:00,38.3,33.9,29.81,SE,135,0.7,3.5,84,0.02,OVC,FEW,0.35,WeatherDisplay:10.37,2013-01-11 04:11:00,
2013-01-10 22:16:00,38.3,33.9,29.80,East,90,1.6,3.5,84,0.02,OVC,FEW,0.35,WeatherDisplay:10.37,2013-01-11 04:16:00,
2013-01-10 22:22:00,38.3,34.2,29.78,SE,135,0.7,2.3,85,0.01,OVC,FEW,0.35,WeatherDisplay:10.37,2013-01-11 04:22:00,
2013-01-10 22:28:00,38.3,34.2,29.79,SE,135,0.7,2.3,85,0.01,OVC,FEW,0.35,WeatherDisplay:10.37,2013-01-11 04:28:00,
2013-01-10 22:33:00,38.3,34.2,29.78,North,0,0.7,2.3,85,0.01,OVC,FEW,0.35,WeatherDisplay:10.37,2013-01-11 04:33:00,
2013-01-10 22:39:00,38.3,34.2,29.78,North,0,0.7,2.3,85,0.01,OVC,FEW,0.35,WeatherDisplay:10.37,2013-01-11 04:39:00,
2013-01-10 22:44:00,38.3,34.2,29.78,North,0,0.7,2.3,85,0.01,OVC,FEW,0.35,WeatherDisplay:10.37,2013-01-11 04:44:00,
2013-01-10 22:50:00,38.3,34.2,29.77,North,0,0.7,2.3,85,0.01,OVC,FEW,0.35,WeatherDisplay:10.37,2013-01-11 04:50:00,
2013-01-10 22:56:00,38.3,34.2,29.75,North,0,0.7,2.3,85,0.00,OVC,FEW,0.35,WeatherDisplay:10.37,2013-01-11 04:56:00,
2013-01-10 23:03:00,38.3,33.0,29.76,North,0,0.7,2.3,81,0.00,OVC,FEW,0.35,WeatherDisplay:10.37,2013-01-11 05:03:00,
2013-01-10 23:04:00,38.3,33.0,29.76,North,0,0.7,2.3,81,0.00,OVC,FEW,0.35,WeatherDisplay:10.37,2013-01-11 05:04:00,
2013-01-10 23:10:00,38.3,33.0,29.76,North,0,0.7,2.3,81,0.00,OVC,FEW,0.35,WeatherDisplay:10.37,2013-01-11 05:10:00,
2013-01-10 23:11:00,38.3,33.0,29.76,North,0,0.7,2.3,81,0.00,OVC,FEW,0.35,WeatherDisplay:10.37,2013-01-11 05:11:00,
2013-01-10 23:16:00,38.3,33.0,29.75,North,0,0.7,2.3,81,0.00,OVC,FEW,0.35,WeatherDisplay:10.37,2013-01-11 05:16:00,
2013-01-10 23:22:00,38.3,33.0,29.75,North,0,0.7,2.3,81,0.00,OVC,FEW,0.35,WeatherDisplay:10.37,2013-01-11 05:22:00,
2013-01-10 23:28:00,38.3,33.0,29.75,North,0,0.7,2.3,81,0.00,OVC,FEW,0.35,WeatherDisplay:10.37,2013-01-11 05:28:00,
2013-01-10 23:33:00,38.3,33.0,29.75,North,0,0.7,2.3,81,0.00,OVC,FEW,0.35,WeatherDisplay:10.37,2013-01-11 05:33:00,
2013-01-10 23:39:00,38.3,33.0,29.75,North,0,0.7,2.3,81,0.00,OVC,FEW,0.35,WeatherDisplay:10.37,2013-01-11 05:39:00,
2013-01-10 23:44:00,38.3,33.0,29.74,North,0,0.7,2.3,81,0.00,OVC,FEW,0.35,WeatherDisplay:10.37,2013-01-11 05:44:00,
2013-01-10 23:50:00,38.3,33.0,29.75,North,0,0.7,2.3,81,0.00,OVC,FEW,0.35,WeatherDisplay:10.37,2013-01-11 05:50:00,
2013-01-10 23:56:00,38.3,33.0,29.74,North,0,0.7,2.3,81,0.00,OVC,FEW,0.35,WeatherDisplay:10.37,2013-01-11 05:56:00,